Time;durP1;ratioP1;P1;durP2;ratioP2;P2;SDS_P1;SDS_P2;PMS_P1;PMS_P2;Temp;Humidity;BMP_temperature;BMP_pressure;BME280_temperature;BME280_humidity;BME280_pressure;Samples;Min_cycle;Max_cycle;Signal;HPM_P1;HPM_P2
2023/09/11 06:49:09;;;;;;;14.45;7.40;;;;;;;21.19;71.69;96529.13;2091189;27;20550;-61
2023/09/11 06:51:19;;;;;;;14.15;7.63;;;;;;;21.69;70.27;96530.84;2084668;28;20547;-61
2023/09/11 06:52:21;;;;;;;19.73;7.28;;;;;;;21.92;69.24;96535.03;2081797;28;20196;-61
2023/09/11 06:53:22;;;;;;;16.40;6.78;;;;;;;22.00;69.07;96536.00;2082437;28;20201;-62
2023/09/11 06:54:24;;;;;;;18.25;7.05;;;;;;;22.03;68.53;96537.53;2078933;28;20304;-61
2023/09/11 06:55:25;;;;;;;9.32;6.13;;;;;;;22.06;69.00;96539.91;2075414;28;20201;-61
2023/09/11 06:56:27;;;;;;;22.35;7.68;;;;;;;22.06;68.90;96531.94;2073110;28;20202;-61
2023/09/11 06:57:28;;;;;;;25.85;8.95;;;;;;;21.95;68.94;96538.25;2076518;28;20220;-61
2023/09/11 06:58:30;;;;;;;27.50;7.40;;;;;;;22.11;68.56;96542.13;2075657;28;20719;-62
2023/09/11 06:59:32;;;;;;;17.75;7.45;;;;;;;22.40;66.96;96533.25;2075412;28;20303;-62
2023/09/11 07:00:33;;;;;;;18.70;7.28;;;;;;;22.31;68.14;96535.78;2073793;28;20201;-62
2023/09/11 07:01:39;;;;;;;13.00;7.93;;;;;;;22.24;68.14;96533.84;2070857;28;20197;-62
2023/09/11 07:02:41;;;;;;;12.68;6.85;;;;;;;22.24;68.27;96541.81;2071625;28;20233;-62
2023/09/11 07:03:45;;;;;;;16.85;7.50;;;;;;;22.41;68.24;96540.25;2074154;28;20262;-63
2023/09/11 07:04:47;;;;;;;15.40;6.75;;;;;;;22.51;67.86;96541.06;2074331;28;20229;-62
2023/09/11 07:05:51;;;;;;;14.13;7.75;;;;;;;22.81;66.29;96549.78;2070539;28;20230;-63
2023/09/11 07:06:56;;;;;;;13.27;6.72;;;;;;;22.56;66.87;96543.28;2071028;28;20202;-63
2023/09/11 07:07:57;;;;;;;12.10;7.30;;;;;;;23.54;64.26;96548.09;2074928;28;20836;-62
2023/09/11 07:08:59;;;;;;;16.08;7.80;;;;;;;23.66;64.27;96544.22;2073898;28;20686;-63
2023/09/11 07:10:00;;;;;;;16.52;7.28;;;;;;;23.33;64.90;96543.88;2076161;28;20193;-62
2023/09/11 07:11:02;;;;;;;16.20;7.05;;;;;;;23.26;64.66;96537.47;2074153;28;20275;-62
2023/09/11 07:12:03;;;;;;;11.77;6.85;;;;;;;22.94;65.41;96546.75;2074509;28;20197;-62
2023/09/11 07:13:05;;;;;;;11.80;6.75;;;;;;;23.36;65.21;96546.25;2074477;28;20284;-63
2023/09/11 07:14:12;;;;;;;13.00;6.95;;;;;;;23.61;64.19;96542.00;2072715;28;20202;-63
2023/09/11 07:15:14;;;;;;;9.00;6.43;;;;;;;23.63;64.25;96532.03;2074831;28;20196;-62
2023/09/11 07:16:15;;;;;;;12.38;6.70;;;;;;;23.78;63.60;96540.31;2074190;28;20246;-63
2023/09/11 07:17:17;;;;;;;17.35;6.55;;;;;;;23.91;63.29;96544.44;2070711;28;20281;-63
2023/09/11 07:18:18;;;;;;;10.40;6.57;;;;;;;24.15;62.67;96537.59;2072525;28;20430;-63
2023/09/11 07:19:22;;;;;;;11.67;6.10;;;;;;;24.68;61.41;96535.78;2074681;28;20596;-62
2023/09/11 07:20:24;;;;;;;18.50;5.63;;;;;;;24.67;61.46;96540.28;2070609;28;20427;-63
2023/09/11 07:21:25;;;;;;;38.00;9.60;;;;;;;25.01;61.02;96539.41;2071975;28;20952;-63
2023/09/11 07:22:26;;;;;;;16.00;6.80;;;;;;;25.52;59.32;96544.75;2072945;28;20891;-63
2023/09/11 07:23:29;;;;;;;24.30;7.77;;;;;;;25.04;60.46;96531.09;2076199;28;20435;-63
2023/09/11 07:24:31;;;;;;;29.33;6.70;;;;;;;25.43;59.89;96535.88;2073985;28;20443;-63
2023/09/11 07:25:32;;;;;;;36.23;8.60;;;;;;;25.30;59.48;96540.00;2072301;28;20767;-63
2023/09/11 07:26:33;;;;;;;11.70;6.40;;;;;;;24.96;60.65;96539.06;2074941;28;20509;-63
2023/09/11 07:27:35;;;;;;;10.90;6.60;;;;;;;25.86;58.37;96541.09;2073733;28;20428;-63
2023/09/11 07:28:57;;;;;;;24.53;7.17;;;;;;;25.80;59.16;96539.09;2073743;28;20974;-63
2023/09/11 07:30:05;;;;;;;17.20;7.20;;;;;;;25.70;58.81;96536.59;2074173;28;20443;-63
2023/09/11 07:31:07;;;;;;;18.17;6.70;;;;;;;25.17;60.36;96535.13;2075048;28;20486;-63
2023/09/11 07:32:09;;;;;;;9.83;6.50;;;;;;;25.41;60.17;96537.06;2074307;28;20502;-63
2023/09/11 07:33:11;;;;;;;8.80;6.07;;;;;;;25.62;59.51;96538.41;2070835;28;20731;-63
2023/09/11 07:34:14;;;;;;;15.07;7.13;;;;;;;25.81;59.35;96537.25;2070420;28;20438;-63
2023/09/11 07:35:15;;;;;;;15.30;6.13;;;;;;;26.17;58.28;96534.25;2075027;28;20422;-63
2023/09/11 07:36:18;;;;;;;9.60;5.77;;;;;;;26.43;57.53;96539.38;2075525;28;20426;-64
2023/09/11 07:37:20;;;;;;;13.73;5.90;;;;;;;26.69;57.38;96535.63;2074004;28;20427;-63
2023/09/11 07:38:21;;;;;;;15.80;6.10;;;;;;;26.87;56.78;96541.63;2070750;28;20434;-63
2023/09/11 07:39:23;;;;;;;9.83;5.77;;;;;;;27.28;55.12;96537.09;2071295;28;20874;-63
2023/09/11 07:40:24;;;;;;;15.10;6.87;;;;;;;27.53;55.08;96538.63;2074549;28;20474;-64
2023/09/11 07:41:26;;;;;;;12.80;5.30;;;;;;;27.96;54.33;96538.13;2075701;28;20420;-63
2023/09/11 07:42:27;;;;;;;13.97;5.70;;;;;;;27.75;54.49;96538.78;2074706;28;20427;-63
2023/09/11 07:43:29;;;;;;;9.37;5.23;;;;;;;27.80;54.40;96543.63;2072760;28;20435;-63
2023/09/11 07:44:30;;;;;;;10.33;5.87;;;;;;;27.85;54.77;96539.38;2070171;28;20451;-63
2023/09/11 07:45:32;;;;;;;14.57;5.33;;;;;;;27.94;54.07;96537.47;2071017;28;20992;-63
2023/09/11 07:46:33;;;;;;;9.20;4.97;;;;;;;28.30;53.51;96536.84;2073687;28;20433;-63
2023/09/11 07:47:34;;;;;;;11.00;5.83;;;;;;;28.61;52.95;96535.84;2074808;28;20434;-63
2023/09/11 07:48:36;;;;;;;17.13;5.80;;;;;;;28.48;52.71;96533.81;2074941;28;20467;-63
2023/09/11 07:49:38;;;;;;;14.30;5.80;;;;;;;28.34;53.12;96531.94;2069991;28;20892;-63
2023/09/11 07:50:39;;;;;;;20.20;6.10;;;;;;;28.78;52.13;96533.00;2071567;28;20470;-63
2023/09/11 07:51:41;;;;;;;13.53;5.10;;;;;;;28.65;53.32;96541.69;2073878;28;20489;-63
2023/09/11 07:52:42;;;;;;;24.90;6.80;;;;;;;28.78;52.43;96533.00;2075154;28;20785;-63
2023/09/11 07:53:44;;;;;;;11.57;5.53;;;;;;;29.01;52.96;96532.88;2071896;28;20929;-63
2023/09/11 07:54:46;;;;;;;15.87;7.03;;;;;;;28.61;53.38;96533.16;2070103;28;20466;-64
2023/09/11 07:55:48;;;;;;;11.00;5.33;;;;;;;29.06;52.31;96535.00;2070856;28;20531;-64
2023/09/11 07:56:52;;;;;;;11.90;5.60;;;;;;;29.18;52.02;96530.81;2075742;28;20503;-64
2023/09/11 07:57:53;;;;;;;17.23;6.33;;;;;;;29.35;51.35;96536.81;2073281;28;20431;-63
2023/09/11 07:58:55;;;;;;;9.53;6.70;;;;;;;29.01;51.86;96543.63;2074021;28;20437;-64
2023/09/11 07:59:56;;;;;;;7.57;5.60;;;;;;;29.19;51.83;96537.84;2070114;28;20530;-64
2023/09/11 08:00:58;;;;;;;12.77;7.00;;;;;;;28.83;52.27;96535.97;2071017;28;20434;-63
2023/09/11 08:01:59;;;;;;;14.30;6.27;;;;;;;28.71;53.10;96540.97;2073239;28;20434;-64
2023/09/11 08:03:03;;;;;;;16.87;7.53;;;;;;;29.09;52.44;96542.69;2069661;28;20428;-63
2023/09/11 08:04:05;;;;;;;8.37;4.97;;;;;;;29.49;51.47;96544.00;2066601;28;20420;-63
2023/09/11 08:05:07;;;;;;;7.83;5.00;;;;;;;29.56;51.19;96548.63;2079231;28;20433;-64
2023/09/11 08:06:08;;;;;;;11.10;5.93;;;;;;;29.28;52.25;96542.13;2078260;28;20427;-63
2023/09/11 08:07:11;;;;;;;12.70;5.50;;;;;;;29.39;52.30;96546.16;2068232;28;20681;-64
2023/09/11 08:08:13;;;;;;;9.57;5.50;;;;;;;29.73;51.26;96550.03;2069430;28;20939;-64
2023/09/11 08:09:14;;;;;;;14.80;5.97;;;;;;;29.64;51.11;96541.25;2067593;28;20466;-63
2023/09/11 08:10:16;;;;;;;11.03;6.07;;;;;;;29.46;51.68;96541.72;2069267;28;20424;-64
2023/09/11 08:11:19;;;;;;;13.33;4.93;;;;;;;30.09;50.49;96551.00;2068066;28;20423;-63
2023/09/11 08:12:21;;;;;;;10.93;5.80;;;;;;;30.47;49.87;96550.69;2068087;28;20519;-63
2023/09/11 08:13:22;;;;;;;12.50;6.13;;;;;;;30.31;50.47;96541.06;2067343;28;20919;-63
2023/09/11 08:14:24;;;;;;;11.00;5.90;;;;;;;30.18;51.15;96557.09;2067514;28;20455;-63
2023/09/11 08:15:28;;;;;;;14.67;6.13;;;;;;;30.36;50.64;96548.53;2064942;28;20420;-63
2023/09/11 08:16:29;;;;;;;15.43;5.23;;;;;;;30.13;50.63;96553.13;2065877;28;20443;-64
2023/09/11 08:17:31;;;;;;;11.43;5.97;;;;;;;29.76;51.45;96554.19;2065008;28;20767;-62
2023/09/11 08:18:34;;;;;;;11.43;6.13;;;;;;;29.87;51.67;96555.56;2066369;28;20823;-62
2023/09/11 08:19:35;;;;;;;15.03;6.00;;;;;;;29.84;51.57;96551.41;2069306;28;20462;-62
2023/09/11 08:20:37;;;;;;;6.97;5.60;;;;;;;30.16;50.25;96551.06;2067970;28;20957;-62
2023/09/11 08:21:40;;;;;;;7.07;5.13;;;;;;;29.88;50.32;96557.22;2064810;28;20432;-63
2023/09/11 08:22:41;;;;;;;9.00;6.40;;;;;;;29.73;50.78;96557.28;2065375;28;20436;-63
2023/09/11 08:23:44;;;;;;;10.27;6.17;;;;;;;29.81;51.50;96557.16;2068830;28;20944;-63
2023/09/11 08:24:45;;;;;;;10.97;6.67;;;;;;;30.24;50.93;96557.13;2064306;28;20471;-62
2023/09/11 08:25:47;;;;;;;14.50;5.43;;;;;;;30.21;50.34;96554.03;2065610;28;20489;-62
2023/09/11 08:26:48;;;;;;;13.83;5.47;;;;;;;30.12;49.34;96559.53;2065067;28;20436;-62
2023/09/11 08:27:51;;;;;;;10.90;5.67;;;;;;;29.85;50.40;96558.41;2065982;28;20424;-62
2023/09/11 08:28:52;;;;;;;13.93;6.50;;;;;;;30.01;50.66;96554.69;2067703;28;20489;-62
2023/09/11 08:29:55;;;;;;;15.10;5.90;;;;;;;30.03;51.33;96554.47;2066081;28;20470;-62
2023/09/11 08:30:57;;;;;;;8.60;5.30;;;;;;;29.99;50.22;96558.59;2068204;28;20434;-62
2023/09/11 08:31:58;;;;;;;11.70;5.30;;;;;;;30.04;49.49;96557.00;2068562;28;20463;-63
2023/09/11 08:33:02;;;;;;;10.93;5.03;;;;;;;29.94;49.57;96543.00;2068972;28;20499;-63
2023/09/11 08:34:05;;;;;;;14.50;5.70;;;;;;;30.07;49.27;96561.16;2067162;28;20451;-62
2023/09/11 08:35:06;;;;;;;17.17;5.57;;;;;;;29.64;50.71;96553.91;2067885;28;20460;-62
2023/09/11 08:36:09;;;;;;;11.53;5.20;;;;;;;29.71;50.88;96552.13;2068646;28;20485;-62
2023/09/11 08:37:11;;;;;;;14.43;6.20;;;;;;;29.93;50.24;96549.44;2064904;28;20440;-63
2023/09/11 08:38:12;;;;;;;15.03;7.50;;;;;;;29.60;50.59;96550.75;2065160;28;20459;-64
2023/09/11 08:39:14;;;;;;;11.77;6.90;;;;;;;29.37;50.63;96545.53;2069226;28;20788;-63
2023/09/11 08:40:15;;;;;;;15.27;5.73;;;;;;;29.52;50.97;96547.34;2067663;28;20471;-62
2023/09/11 08:41:19;;;;;;;12.23;5.87;;;;;;;29.79;50.58;96543.06;2068346;28;20415;-62
2023/09/11 08:42:22;;;;;;;9.00;5.20;;;;;;;29.76;51.18;96549.69;2067108;28;20514;-63
2023/09/11 08:43:24;;;;;;;8.90;5.60;;;;;;;29.27;51.52;96545.00;2064748;28;20962;-63
2023/09/11 08:44:26;;;;;;;10.23;5.70;;;;;;;28.92;52.35;96539.38;2066094;28;20451;-62
2023/09/11 08:45:28;;;;;;;17.00;5.80;;;;;;;28.62;52.51;96550.09;2067799;28;20436;-62
2023/09/11 08:46:32;;;;;;;14.88;5.03;;;;;;;29.21;51.46;96541.19;2068125;28;20454;-63
2023/09/11 08:47:35;;;;;;;13.10;5.83;;;;;;;29.23;51.48;96543.69;2068202;28;20206;-62
2023/09/11 08:48:42;;;;;;;16.13;5.57;;;;;;;29.42;51.57;96543.13;2068035;28;21088;-63
2023/09/11 08:49:54;;;;;;;9.47;6.10;;;;;;;29.43;51.79;96536.72;2067763;28;20601;-63
2023/09/11 08:51:03;;;;;;;14.20;5.95;;;;;;;29.13;52.24;96538.63;2067828;28;20471;-63
2023/09/11 08:52:07;;;;;;;9.25;4.93;;;;;;;29.36;51.61;96543.88;2068347;28;20256;-62
2023/09/11 08:53:12;;;;;;;12.27;5.80;;;;;;;29.10;52.67;96536.28;2068622;28;20741;-62
2023/09/11 08:54:17;;;;;;;10.73;5.82;;;;;;;28.80;52.75;96536.34;2066888;28;20218;-63
2023/09/11 08:55:21;;;;;;;9.60;5.80;;;;;;;29.06;52.67;96540.38;2075859;28;20819;-63
2023/09/11 08:56:23;;;;;;;8.70;5.50;;;;;;;29.19;52.55;96535.16;2074881;28;20498;-62
2023/09/11 08:57:28;;;;;;;13.33;5.90;;;;;;;28.99;52.93;96541.13;2069454;28;20842;-62
2023/09/11 08:58:31;;;;;;;15.65;6.15;;;;;;;29.36;52.50;96541.19;2065364;28;20478;-62
2023/09/11 08:59:37;;;;;;;23.37;5.97;;;;;;;29.74;50.94;96542.81;2067149;28;20864;-62
2023/09/11 09:00:39;;;;;;;14.30;6.03;;;;;;;29.07;51.79;96539.38;2069432;28;20522;-62
2023/09/11 09:01:41;;;;;;;16.88;6.45;;;;;;;29.40;51.41;96536.25;2073055;28;20194;-63
2023/09/11 09:02:43;;;;;;;11.97;5.77;;;;;;;29.52;51.64;96539.28;2070201;28;20604;-63
2023/09/11 09:03:47;;;;;;;15.60;6.00;;;;;;;30.10;50.89;96540.03;2070850;28;20459;-63
2023/09/11 09:04:50;;;;;;;8.48;5.10;;;;;;;30.55;51.08;96544.34;2074163;28;20461;-63
2023/09/11 09:05:53;;;;;;;10.60;5.37;;;;;;;30.52;50.14;96545.56;2068178;28;20256;-63
2023/09/11 09:06:55;;;;;;;28.20;6.60;;;;;;;30.06;51.68;96536.09;2067896;28;20487;-63
2023/09/11 09:07:58;;;;;;;15.70;6.10;;;;;;;30.39;50.66;96538.19;2066815;28;20427;-63
2023/09/11 09:09:00;;;;;;;15.63;5.10;;;;;;;30.41;50.08;96535.31;2068149;28;20476;-63
2023/09/11 09:10:03;;;;;;;19.87;5.00;;;;;;;30.66;49.81;96541.09;2067928;28;20435;-63
2023/09/11 09:11:04;;;;;;;20.73;5.90;;;;;;;30.48;50.01;96540.78;2075073;28;20507;-63
2023/09/11 09:12:06;;;;;;;11.97;5.20;;;;;;;30.46;50.08;96539.09;2072495;28;20973;-63
2023/09/11 09:13:09;;;;;;;11.00;5.43;;;;;;;29.93;50.56;96542.19;2068176;28;21179;-63
2023/09/11 09:14:12;;;;;;;9.33;5.23;;;;;;;30.27;50.43;96539.75;2066966;28;20434;-63
2023/09/11 09:15:16;;;;;;;18.07;5.27;;;;;;;30.39;49.98;96540.88;2067991;28;20434;-63
2023/09/11 09:16:18;;;;;;;21.23;6.27;;;;;;;30.43;49.72;96541.34;2065778;28;20459;-63
2023/09/11 09:17:19;;;;;;;15.30;5.20;;;;;;;30.45;49.86;96542.78;2065939;28;20475;-63
2023/09/11 09:18:20;;;;;;;9.60;5.63;;;;;;;30.47;48.73;96545.28;2064694;28;20436;-63
2023/09/11 09:19:22;;;;;;;15.53;5.73;;;;;;;29.57;50.14;96539.53;2064117;28;20456;-63
2023/09/11 09:20:24;;;;;;;14.53;4.90;;;;;;;30.25;49.40;96537.25;2069221;28;20470;-63
2023/09/11 09:21:27;;;;;;;13.13;5.77;;;;;;;30.76;49.08;96544.25;2076396;28;20446;-64
2023/09/11 09:22:29;;;;;;;18.20;5.00;;;;;;;30.70;48.67;96537.00;2076180;28;20996;-63
2023/09/11 09:23:32;;;;;;;16.80;5.53;;;;;;;30.81;48.53;96540.97;2064910;28;20519;-63
2023/09/11 09:24:35;;;;;;;15.13;5.20;;;;;;;31.04;48.08;96540.66;2064508;28;20456;-64
2023/09/11 09:25:37;;;;;;;22.20;5.40;;;;;;;31.45;47.13;96544.34;2068450;28;20519;-62
2023/09/11 09:26:59;;;;;;;10.07;5.03;;;;;;;31.54;47.36;96534.22;2070386;28;20431;-63
2023/09/11 09:28:00;;;;;;;14.70;5.67;;;;;;;31.06;47.89;96537.81;2068847;28;20431;-63
2023/09/11 09:29:10;;;;;;;14.53;5.90;;;;;;;30.90;48.17;96537.06;2068796;28;20427;-63
2023/09/11 09:30:27;;;;;;;13.07;5.53;;;;;;;31.04;47.87;96534.44;2067736;28;20439;-64
2023/09/11 09:31:29;;;;;;;23.00;5.57;;;;;;;31.97;47.16;96533.88;2066577;28;20431;-63
2023/09/11 09:32:34;;;;;;;15.33;5.23;;;;;;;32.07;46.56;96538.88;2067370;28;20942;-63
2023/09/11 09:33:36;;;;;;;11.40;5.47;;;;;;;32.60;45.97;96531.81;2067726;28;20907;-63
2023/09/11 09:34:46;;;;;;;12.03;5.30;;;;;;;32.88;45.43;96532.34;2067082;28;20454;-64
2023/09/11 09:35:48;;;;;;;11.03;4.57;;;;;;;32.57;45.52;96524.94;2064922;28;20923;-63
2023/09/11 09:36:54;;;;;;;13.57;6.67;;;;;;;33.27;44.68;96535.13;2067433;28;20439;-61
2023/09/11 09:37:57;;;;;;;13.10;4.90;;;;;;;32.89;44.93;96541.31;2068749;28;20539;-61
2023/09/11 09:38:59;;;;;;;15.90;5.90;;;;;;;33.78;44.02;96536.09;2067292;28;20758;-61
2023/09/11 09:40:04;;;;;;;9.40;5.57;;;;;;;33.21;44.21;96531.41;2067870;28;20435;-61
2023/09/11 09:41:12;;;;;;;22.83;5.10;;;;;;;33.05;44.06;96526.47;2068292;28;20429;-62
2023/09/11 09:42:14;;;;;;;13.33;5.17;;;;;;;33.05;43.73;96529.19;2066997;28;20428;-62
2023/09/11 09:43:18;;;;;;;9.10;5.07;;;;;;;33.05;43.46;96527.31;2064557;28;20467;-62
2023/09/11 09:44:29;;;;;;;12.30;5.30;;;;;;;33.44;43.14;96526.53;2065061;28;20917;-62
2023/09/11 09:45:33;;;;;;;9.80;5.40;;;;;;;32.82;44.17;96530.50;2068179;28;20435;-63
2023/09/11 09:46:41;;;;;;;24.00;5.40;;;;;;;33.57;43.67;96531.84;2067286;28;20485;-62
2023/09/11 09:47:43;;;;;;;19.83;4.70;;;;;;;33.36;44.32;96528.44;2064360;28;20436;-63
2023/09/11 09:48:45;;;;;;;14.63;5.10;;;;;;;32.74;45.78;96527.22;2064245;28;20424;-63
2023/09/11 09:49:53;;;;;;;10.53;4.57;;;;;;;33.41;45.31;96530.50;2065691;28;20462;-63
2023/09/11 09:51:02;;;;;;;11.67;4.87;;;;;;;33.03;45.02;96524.00;2066866;28;20543;-62
2023/09/11 09:52:04;;;;;;;9.20;4.97;;;;;;;33.95;44.34;96528.28;2067822;28;20457;-63
2023/09/11 09:53:05;;;;;;;11.90;4.83;;;;;;;34.42;43.36;96516.25;2068862;28;20873;-62
2023/09/11 09:54:07;;;;;;;13.43;5.23;;;;;;;34.95;42.13;96526.56;2067102;28;20484;-62
2023/09/11 09:55:08;;;;;;;14.43;4.80;;;;;;;35.69;41.53;96524.78;2066748;28;20652;-63
2023/09/11 09:56:11;;;;;;;17.13;4.33;;;;;;;35.58;41.30;96527.25;2067277;28;20459;-63
2023/09/11 09:57:15;;;;;;;15.57;4.50;;;;;;;35.72;40.75;96517.00;2066664;28;20432;-63
2023/09/11 09:58:24;;;;;;;18.50;4.97;;;;;;;35.28;40.87;96516.34;2065872;28;20424;-63
2023/09/11 09:59:26;;;;;;;16.33;4.43;;;;;;;35.67;40.55;96527.75;2073952;28;20949;-62
2023/09/11 10:00:28;;;;;;;13.07;4.93;;;;;;;35.82;40.43;96524.59;2067236;28;20424;-62
2023/09/11 10:01:29;;;;;;;9.70;4.30;;;;;;;35.99;40.13;96518.53;2070222;28;20435;-63
2023/09/11 10:02:34;;;;;;;10.73;4.23;;;;;;;35.89;40.23;96516.38;2069441;28;20472;-63
2023/09/11 10:03:51;;;;;;;10.43;4.00;;;;;;;35.41;40.53;96516.19;2068267;28;20454;-63
2023/09/11 10:04:58;;;;;;;16.87;5.47;;;;;;;35.47;40.38;96517.16;2065265;28;20547;-63
2023/09/11 10:06:05;;;;;;;11.73;4.97;;;;;;;35.34;40.91;96522.75;2068891;28;20834;-63
2023/09/11 10:07:07;;;;;;;8.33;4.23;;;;;;;35.14;40.79;96505.66;2067093;28;20442;-63
2023/09/11 10:08:13;;;;;;;25.43;4.47;;;;;;;35.49;40.57;96512.34;2068259;28;20434;-63
2023/09/11 10:09:15;;;;;;;20.60;5.60;;;;;;;35.21;40.12;96511.03;2067004;28;20432;-63
2023/09/11 10:10:21;;;;;;;8.43;4.53;;;;;;;34.78;42.13;96510.06;2069159;28;20453;-63
2023/09/11 10:11:27;;;;;;;16.30;5.73;;;;;;;35.74;41.07;96506.72;2068563;28;20469;-63
2023/09/11 10:12:29;;;;;;;17.37;5.37;;;;;;;35.73;40.72;96507.81;2068165;28;20431;-63
2023/09/11 10:13:33;;;;;;;16.33;5.03;;;;;;;36.02;40.24;96508.00;2067017;28;20431;-63
2023/09/11 10:14:36;;;;;;;9.67;4.40;;;;;;;36.42;39.92;96507.34;2067118;28;20514;-63
2023/09/11 10:15:40;;;;;;;8.70;4.60;;;;;;;36.27;38.74;96502.34;2067562;28;20499;-63
2023/09/11 10:16:42;;;;;;;10.00;3.87;;;;;;;35.74;38.19;96506.72;2067708;28;20423;-63
2023/09/11 10:17:43;;;;;;;7.33;3.43;;;;;;;35.51;38.70;96502.06;2068083;28;21090;-63
2023/09/11 10:18:46;;;;;;;9.37;5.27;;;;;;;35.75;39.09;96494.81;2067863;28;21134;-63
2023/09/11 10:19:49;;;;;;;11.00;4.03;;;;;;;36.47;38.56;96501.22;2067408;28;20529;-63
2023/09/11 10:20:51;;;;;;;6.70;3.50;;;;;;;36.49;38.03;96496.34;2067857;28;20521;-63
2023/09/11 10:21:52;;;;;;;12.33;4.27;;;;;;;36.31;37.45;96505.41;2067344;28;20482;-64
2023/09/11 10:22:56;;;;;;;8.43;3.60;;;;;;;36.75;37.51;96500.44;2068135;28;20428;-64
2023/09/11 10:23:58;;;;;;;10.50;4.30;;;;;;;37.03;37.02;96507.03;2068048;28;20977;-63
2023/09/11 10:24:59;;;;;;;12.50;3.90;;;;;;;36.65;37.63;96499.41;2065740;28;20850;-63
2023/09/11 10:26:06;;;;;;;11.43;3.40;;;;;;;36.71;36.39;96498.44;2063815;28;20498;-63
2023/09/11 10:27:08;;;;;;;6.17;4.23;;;;;;;36.36;37.13;96493.88;2064536;28;20549;-63
2023/09/11 10:28:31;;;;;;;8.33;3.77;;;;;;;35.94;37.39;96492.88;2066483;28;20522;-64
2023/09/11 10:29:53;;;;;;;12.10;3.60;;;;;;;36.42;37.56;96496.47;2065899;28;20487;-63
2023/09/11 10:31:13;;;;;;;7.50;3.00;;;;;;;36.47;36.77;96494.91;2064081;28;20443;-63
2023/09/11 10:32:20;;;;;;;9.57;3.93;;;;;;;36.29;37.70;96491.22;2065879;28;20439;-64
2023/09/11 10:33:26;;;;;;;5.43;3.50;;;;;;;36.88;37.82;96496.66;2068186;28;20424;-63
2023/09/11 10:34:28;;;;;;;12.03;4.13;;;;;;;37.02;37.33;96483.63;2067117;28;20470;-64
2023/09/11 10:35:33;;;;;;;8.53;3.57;;;;;;;37.98;36.37;96489.47;2067447;28;20812;-64
2023/09/11 10:36:39;;;;;;;11.83;4.20;;;;;;;37.25;36.21;96492.75;2066035;28;21228;-63
2023/09/11 10:37:42;;;;;;;13.50;3.80;;;;;;;37.19;36.52;96485.56;2069435;28;20821;-64
2023/09/11 10:38:45;;;;;;;10.23;3.73;;;;;;;37.77;36.23;96494.53;2063886;28;20519;-64
2023/09/11 10:39:49;;;;;;;10.20;3.40;;;;;;;37.55;35.55;96491.72;2066293;28;20490;-63
2023/09/11 10:40:53;;;;;;;5.87;3.63;;;;;;;38.19;35.78;96496.06;2066748;28;20508;-64
2023/09/11 10:41:54;;;;;;;9.33;3.37;;;;;;;38.65;34.73;96488.59;2064687;28;20428;-64
2023/09/11 10:42:57;;;;;;;8.80;3.40;;;;;;;37.41;35.61;96491.19;2066537;28;20427;-64
2023/09/11 10:43:58;;;;;;;14.10;4.00;;;;;;;37.17;36.28;96488.53;2065727;28;20509;-63
2023/09/11 10:45:03;;;;;;;8.70;3.50;;;;;;;36.95;36.10;96487.53;2067178;28;20970;-63
2023/09/11 10:46:16;;;;;;;7.30;4.23;;;;;;;36.93;36.66;96490.50;2071490;28;20442;-63
2023/09/11 10:47:19;;;;;;;12.90;4.30;;;;;;;37.84;35.95;96489.81;2072271;28;20438;-63
2023/09/11 10:48:31;;;;;;;13.80;4.47;;;;;;;37.48;36.19;96483.69;2063892;28;20423;-63
2023/09/11 10:49:36;;;;;;;7.37;3.47;;;;;;;37.56;35.98;96487.91;2065163;28;20476;-63
2023/09/11 10:50:43;;;;;;;10.10;3.40;;;;;;;36.34;37.25;96479.66;2068112;28;20545;-64
2023/09/11 10:51:47;;;;;;;7.33;4.00;;;;;;;37.72;35.75;96487.09;2067801;28;20446;-64
2023/09/11 10:52:52;;;;;;;5.93;3.77;;;;;;;38.25;35.53;96481.44;2067360;28;20443;-64
2023/09/11 10:53:54;;;;;;;7.63;3.50;;;;;;;38.58;34.84;96478.91;2066782;28;20436;-64
2023/09/11 10:54:57;;;;;;;6.33;3.10;;;;;;;38.64;35.22;96481.47;2065724;28;21124;-64
2023/09/11 10:56:02;;;;;;;14.43;4.27;;;;;;;37.05;36.10;96475.00;2068336;28;20432;-64
2023/09/11 10:57:05;;;;;;;14.23;3.80;;;;;;;36.81;37.18;96476.06;2067712;28;20423;-64
2023/09/11 10:58:07;;;;;;;11.70;4.30;;;;;;;37.15;36.40;96471.63;2066246;28;20431;-64
2023/09/11 10:59:09;;;;;;;9.17;3.80;;;;;;;36.88;36.80;96472.19;2067289;28;20966;-63
2023/09/11 11:00:11;;;;;;;14.00;3.97;;;;;;;36.30;37.01;96471.16;2067648;28;20428;-64
2023/09/11 11:01:16;;;;;;;8.10;3.87;;;;;;;35.79;38.21;96474.28;2064040;28;20494;-64
2023/09/11 11:02:21;;;;;;;8.53;3.67;;;;;;;35.89;37.66;96468.31;2064653;28;20428;-63
2023/09/11 11:03:28;;;;;;;8.20;4.17;;;;;;;36.20;38.32;96470.91;2068655;28;20923;-63
2023/09/11 11:04:34;;;;;;;17.63;5.27;;;;;;;36.00;38.00;96463.13;2069214;28;20787;-63
2023/09/11 11:05:37;;;;;;;8.50;4.40;;;;;;;35.84;38.43;96467.34;2065592;28;20427;-63
2023/09/11 11:06:42;;;;;;;9.40;4.07;;;;;;;35.88;38.45;96466.66;2066442;28;20834;-63
2023/09/11 11:07:48;;;;;;;10.67;4.40;;;;;;;35.44;39.01;96457.91;2066915;28;20454;-63
2023/09/11 11:08:50;;;;;;;11.37;4.20;;;;;;;36.24;37.61;96462.06;2067553;28;20482;-64
2023/09/11 11:09:52;;;;;;;9.10;4.30;;;;;;;36.15;38.26;96466.22;2066398;28;20478;-63
2023/09/11 11:10:58;;;;;;;8.10;3.70;;;;;;;37.11;37.38;96464.22;2066998;28;20596;-64
2023/09/11 11:12:04;;;;;;;8.60;4.40;;;;;;;37.77;36.73;96461.06;2068238;28;20507;-64
2023/09/11 11:13:07;;;;;;;9.80;4.17;;;;;;;36.78;37.61;96456.44;2069343;28;20820;-63
2023/09/11 11:14:17;;;;;;;13.03;4.73;;;;;;;37.66;36.77;96460.88;2065849;28;20493;-63
2023/09/11 11:15:24;;;;;;;8.83;4.67;;;;;;;38.43;35.75;96461.28;2067045;28;20434;-63
2023/09/11 11:16:26;;;;;;;7.77;3.67;;;;;;;38.41;34.88;96457.16;2067012;28;20484;-63
2023/09/11 11:17:37;;;;;;;16.00;4.27;;;;;;;38.56;35.39;96462.81;2067834;28;20432;-64
2023/09/11 11:18:39;;;;;;;14.97;4.73;;;;;;;38.15;35.98;96462.22;2066569;28;20515;-64
2023/09/11 11:20:00;;;;;;;7.60;4.00;;;;;;;38.05;35.56;96457.44;2074224;28;20455;-63
2023/09/11 11:21:04;;;;;;;11.07;4.27;;;;;;;36.53;36.54;96453.19;2072804;28;20434;-64
2023/09/11 11:22:08;;;;;;;12.63;4.13;;;;;;;36.52;36.47;96449.66;2068094;28;20451;-63
2023/09/11 11:23:12;;;;;;;9.23;4.20;;;;;;;36.25;36.51;96450.16;2065355;28;20465;-63
2023/09/11 11:24:15;;;;;;;12.33;4.10;;;;;;;36.96;36.33;96451.94;2065986;28;20435;-64
2023/09/11 11:25:17;;;;;;;14.10;4.53;;;;;;;37.53;36.55;96451.09;2065958;28;20468;-64
2023/09/11 11:26:19;;;;;;;9.57;4.60;;;;;;;37.65;36.25;96453.78;2067873;28;20424;-63
2023/09/11 11:27:20;;;;;;;6.63;4.20;;;;;;;37.71;36.03;96452.78;2069033;28;20428;-64
2023/09/11 11:28:23;;;;;;;9.50;4.73;;;;;;;36.87;37.30;96448.78;2063819;28;20478;-63
2023/09/11 11:29:28;;;;;;;14.13;4.90;;;;;;;37.47;36.80;96451.28;2064651;28;20483;-64
2023/09/11 11:30:34;;;;;;;10.73;4.13;;;;;;;38.43;35.92;96455.84;2067877;28;20426;-64
2023/09/11 11:31:37;;;;;;;7.33;4.50;;;;;;;38.51;35.71;96457.28;2067359;28;20881;-64
2023/09/11 11:32:40;;;;;;;10.70;4.53;;;;;;;38.26;35.85;96455.00;2066853;28;20574;-64
2023/09/11 11:33:45;;;;;;;13.17;4.93;;;;;;;38.08;36.02;96456.09;2063872;28;20464;-64
2023/09/11 11:34:50;;;;;;;11.57;3.67;;;;;;;37.86;35.77;96456.88;2063555;28;20538;-64
2023/09/11 11:35:52;;;;;;;8.47;4.17;;;;;;;37.14;36.71;96453.66;2066814;28;20513;-64
2023/09/11 11:36:57;;;;;;;11.60;3.93;;;;;;;36.67;37.04;96453.75;2064009;28;20815;-63
2023/09/11 11:37:59;;;;;;;9.00;3.73;;;;;;;36.17;38.05;96444.25;2066775;28;20431;-63
2023/09/11 11:39:00;;;;;;;27.10;5.03;;;;;;;36.12;38.41;96444.94;2067207;28;20497;-64
2023/09/11 11:40:08;;;;;;;7.90;4.63;;;;;;;36.17;37.86;96447.78;2066853;28;20428;-64
2023/09/11 11:41:12;;;;;;;9.00;3.60;;;;;;;35.66;38.68;96449.25;2070008;28;20432;-63
2023/09/11 11:42:15;;;;;;;13.93;4.53;;;;;;;35.94;38.37;96438.56;2069508;28;20425;-63
2023/09/11 11:43:18;;;;;;;10.60;4.27;;;;;;;35.96;38.23;96452.72;2069501;28;20458;-63
2023/09/11 11:44:21;;;;;;;16.10;5.40;;;;;;;36.11;38.02;96443.28;2065024;28;20545;-63
2023/09/11 11:45:22;;;;;;;11.70;4.07;;;;;;;36.98;37.25;96441.66;2068053;28;20428;-64
2023/09/11 11:46:28;;;;;;;7.13;3.93;;;;;;;37.29;37.15;96442.22;2069163;28;20427;-64